sensor_id;sensor_type;location;lat;lon;timestamp;temperature;humidity
1988;DHT22;12775;46.994;15.498;2023-07-13T00:01:45;23.90;89.70
1988;DHT22;12775;46.994;15.498;2023-07-13T00:04:11;23.90;89.20
1988;DHT22;12775;46.994;15.498;2023-07-13T00:06:38;23.90;89.40
1988;DHT22;12775;46.994;15.498;2023-07-13T00:09:04;23.90;90.20
1988;DHT22;12775;46.994;15.498;2023-07-13T00:11:31;24.00;90.60
1988;DHT22;12775;46.994;15.498;2023-07-13T00:13:58;24.00;90.20
1988;DHT22;12775;46.994;15.498;2023-07-13T00:16:26;24.00;88.30
1988;DHT22;12775;46.994;15.498;2023-07-13T00:18:52;23.90;88.20
1988;DHT22;12775;46.994;15.498;2023-07-13T00:21:19;24.00;88.70
1988;DHT22;12775;46.994;15.498;2023-07-13T00:23:46;23.90;89.40
1988;DHT22;12775;46.994;15.498;2023-07-13T00:26:12;23.80;90.40
1988;DHT22;12775;46.994;15.498;2023-07-13T00:28:39;23.80;90.80
1988;DHT22;12775;46.994;15.498;2023-07-13T00:31:08;23.70;90.60
1988;DHT22;12775;46.994;15.498;2023-07-13T00:33:32;23.60;90.70
1988;DHT22;12775;46.994;15.498;2023-07-13T00:35:59;23.60;90.70
1988;DHT22;12775;46.994;15.498;2023-07-13T00:38:26;23.60;90.80
1988;DHT22;12775;46.994;15.498;2023-07-13T00:40:52;23.60;90.80
1988;DHT22;12775;46.994;15.498;2023-07-13T00:43:20;23.60;91.00
1988;DHT22;12775;46.994;15.498;2023-07-13T00:48:34;23.60;90.70
1988;DHT22;12775;46.994;15.498;2023-07-13T00:51:00;23.60;90.60
1988;DHT22;12775;46.994;15.498;2023-07-13T00:53:27;23.50;91.90
1988;DHT22;12775;46.994;15.498;2023-07-13T00:55:55;23.50;91.30
1988;DHT22;12775;46.994;15.498;2023-07-13T00:58:21;23.50;91.30
1988;DHT22;12775;46.994;15.498;2023-07-13T01:00:47;23.50;91.00
1988;DHT22;12775;46.994;15.498;2023-07-13T01:03:14;23.40;91.30
1988;DHT22;12775;46.994;15.498;2023-07-13T01:05:41;23.40;90.80
1988;DHT22;12775;46.994;15.498;2023-07-13T01:08:07;23.30;90.70
1988;DHT22;12775;46.994;15.498;2023-07-13T01:10:35;23.30;90.70
1988;DHT22;12775;46.994;15.498;2023-07-13T01:13:05;23.30;91.60
1988;DHT22;12775;46.994;15.498;2023-07-13T01:18:17;23.30;92.20
1988;DHT22;12775;46.994;15.498;2023-07-13T01:20:58;23.20;91.90
1988;DHT22;12775;46.994;15.498;2023-07-13T01:23:24;23.20;91.60
1988;DHT22;12775;46.994;15.498;2023-07-13T01:25:50;23.20;92.00
1988;DHT22;12775;46.994;15.498;2023-07-13T01:28:17;23.20;92.80
1988;DHT22;12775;46.994;15.498;2023-07-13T01:30:44;23.10;93.00
1988;DHT22;12775;46.994;15.498;2023-07-13T01:33:10;23.20;92.90
1988;DHT22;12775;46.994;15.498;2023-07-13T01:35:37;23.20;92.80
1988;DHT22;12775;46.994;15.498;2023-07-13T01:38:03;23.20;93.10
1988;DHT22;12775;46.994;15.498;2023-07-13T01:40:31;23.20;93.80
1988;DHT22;12775;46.994;15.498;2023-07-13T01:42:58;23.20;93.80
1988;DHT22;12775;46.994;15.498;2023-07-13T01:45:24;23.10;94.60
1988;DHT22;12775;46.994;15.498;2023-07-13T01:47:50;23.00;94.90
1988;DHT22;12775;46.994;15.498;2023-07-13T01:50:17;23.00;95.40
1988;DHT22;12775;46.994;15.498;2023-07-13T01:52:43;22.90;96.20
1988;DHT22;12775;46.994;15.498;2023-07-13T01:55:10;22.80;97.00
1988;DHT22;12775;46.994;15.498;2023-07-13T01:57:37;22.40;97.90
1988;DHT22;12775;46.994;15.498;2023-07-13T02:00:04;22.10;99.80
1988;DHT22;12775;46.994;15.498;2023-07-13T02:02:30;21.70;99.90
1988;DHT22;12775;46.994;15.498;2023-07-13T02:04:57;21.40;99.90
1988;DHT22;12775;46.994;15.498;2023-07-13T02:07:24;21.10;99.90
1988;DHT22;12775;46.994;15.498;2023-07-13T02:09:50;20.80;99.90
1988;DHT22;12775;46.994;15.498;2023-07-13T02:12:17;20.70;99.90
1988;DHT22;12775;46.994;15.498;2023-07-13T02:14:43;20.60;99.90
1988;DHT22;12775;46.994;15.498;2023-07-13T02:17:10;20.60;99.90
1988;DHT22;12775;46.994;15.498;2023-07-13T02:19:37;20.60;99.90
1988;DHT22;12775;46.994;15.498;2023-07-13T02:22:03;20.60;99.90
1988;DHT22;12775;46.994;15.498;2023-07-13T02:24:30;20.70;99.90
1988;DHT22;12775;46.994;15.498;2023-07-13T02:26:57;20.90;99.90
1988;DHT22;12775;46.994;15.498;2023-07-13T02:29:24;20.80;99.90
1988;DHT22;12775;46.994;15.498;2023-07-13T02:31:51;20.90;99.90
1988;DHT22;12775;46.994;15.498;2023-07-13T02:34:17;20.90;99.90
1988;DHT22;12775;46.994;15.498;2023-07-13T02:36:44;20.90;99.90
1988;DHT22;12775;46.994;15.498;2023-07-13T02:39:11;20.80;99.90
1988;DHT22;12775;46.994;15.498;2023-07-13T02:41:37;20.80;99.90
1988;DHT22;12775;46.994;15.498;2023-07-13T02:44:04;20.60;99.90
1988;DHT22;12775;46.994;15.498;2023-07-13T02:46:31;20.50;99.90
1988;DHT22;12775;46.994;15.498;2023-07-13T02:48:57;20.20;99.90
1988;DHT22;12775;46.994;15.498;2023-07-13T02:51:23;20.10;99.90
1988;DHT22;12775;46.994;15.498;2023-07-13T02:53:51;20.10;99.90
1988;DHT22;12775;46.994;15.498;2023-07-13T02:56:22;20.10;99.90
1988;DHT22;12775;46.994;15.498;2023-07-13T02:58:49;20.00;99.90
1988;DHT22;12775;46.994;15.498;2023-07-13T03:01:16;20.00;99.90
1988;DHT22;12775;46.994;15.498;2023-07-13T03:03:42;20.10;99.90
1988;DHT22;12775;46.994;15.498;2023-07-13T03:06:09;20.10;99.90
1988;DHT22;12775;46.994;15.498;2023-07-13T03:08:35;20.10;99.90
1988;DHT22;12775;46.994;15.498;2023-07-13T03:11:04;20.20;99.90
1988;DHT22;12775;46.994;15.498;2023-07-13T03:13:29;20.30;99.90
1988;DHT22;12775;46.994;15.498;2023-07-13T03:15:56;20.40;99.90
1988;DHT22;12775;46.994;15.498;2023-07-13T03:18:25;20.40;99.90
1988;DHT22;12775;46.994;15.498;2023-07-13T03:20:50;20.40;99.90
1988;DHT22;12775;46.994;15.498;2023-07-13T03:23:17;20.40;99.90
1988;DHT22;12775;46.994;15.498;2023-07-13T03:25:44;20.40;99.90
1988;DHT22;12775;46.994;15.498;2023-07-13T03:28:11;20.40;99.90
1988;DHT22;12775;46.994;15.498;2023-07-13T03:30:37;20.50;99.90
1988;DHT22;12775;46.994;15.498;2023-07-13T03:33:04;20.60;99.90
1988;DHT22;12775;46.994;15.498;2023-07-13T03:35:31;20.70;99.90
1988;DHT22;12775;46.994;15.498;2023-07-13T03:37:58;20.60;99.90
1988;DHT22;12775;46.994;15.498;2023-07-13T03:40:25;20.70;99.90
1988;DHT22;12775;46.994;15.498;2023-07-13T03:42:51;20.70;99.90
1988;DHT22;12775;46.994;15.498;2023-07-13T03:45:18;20.60;99.90
1988;DHT22;12775;46.994;15.498;2023-07-13T03:47:45;20.40;99.90
1988;DHT22;12775;46.994;15.498;2023-07-13T03:50:12;20.30;99.90
1988;DHT22;12775;46.994;15.498;2023-07-13T03:52:39;20.30;99.90
1988;DHT22;12775;46.994;15.498;2023-07-13T03:55:06;20.20;99.90
1988;DHT22;12775;46.994;15.498;2023-07-13T03:57:33;20.30;99.90
1988;DHT22;12775;46.994;15.498;2023-07-13T04:00:00;20.40;99.90
1988;DHT22;12775;46.994;15.498;2023-07-13T04:02:27;20.50;99.90
1988;DHT22;12775;46.994;15.498;2023-07-13T04:04:53;20.50;99.90
1988;DHT22;12775;46.994;15.498;2023-07-13T04:07:20;20.50;99.90
1988;DHT22;12775;46.994;15.498;2023-07-13T04:09:46;20.60;99.90
1988;DHT22;12775;46.994;15.498;2023-07-13T04:12:13;20.60;99.90
1988;DHT22;12775;46.994;15.498;2023-07-13T04:14:39;20.60;99.90
1988;DHT22;12775;46.994;15.498;2023-07-13T04:17:06;20.60;99.90
1988;DHT22;12775;46.994;15.498;2023-07-13T04:19:33;20.60;99.90
1988;DHT22;12775;46.994;15.498;2023-07-13T04:21:59;20.60;99.90
1988;DHT22;12775;46.994;15.498;2023-07-13T04:24:26;20.60;99.90
1988;DHT22;12775;46.994;15.498;2023-07-13T04:26:52;20.60;99.90
1988;DHT22;12775;46.994;15.498;2023-07-13T04:29:19;20.60;99.90
1988;DHT22;12775;46.994;15.498;2023-07-13T04:31:46;20.60;99.90
1988;DHT22;12775;46.994;15.498;2023-07-13T04:34:12;20.60;99.90
1988;DHT22;12775;46.994;15.498;2023-07-13T04:36:39;20.70;99.90
1988;DHT22;12775;46.994;15.498;2023-07-13T04:39:06;20.80;99.90
1988;DHT22;12775;46.994;15.498;2023-07-13T04:41:33;20.90;99.90
1988;DHT22;12775;46.994;15.498;2023-07-13T04:43:59;20.90;99.90
1988;DHT22;12775;46.994;15.498;2023-07-13T04:46:26;21.00;99.90
1988;DHT22;12775;46.994;15.498;2023-07-13T04:48:53;21.00;99.90
1988;DHT22;12775;46.994;15.498;2023-07-13T04:51:20;21.10;99.90
1988;DHT22;12775;46.994;15.498;2023-07-13T04:53:47;21.20;99.90
1988;DHT22;12775;46.994;15.498;2023-07-13T04:56:13;21.20;99.90
1988;DHT22;12775;46.994;15.498;2023-07-13T04:58:40;21.40;99.90
1988;DHT22;12775;46.994;15.498;2023-07-13T05:01:07;21.40;99.90
1988;DHT22;12775;46.994;15.498;2023-07-13T05:03:33;21.50;99.90
1988;DHT22;12775;46.994;15.498;2023-07-13T05:06:00;21.60;99.90
1988;DHT22;12775;46.994;15.498;2023-07-13T05:08:26;21.70;99.90
1988;DHT22;12775;46.994;15.498;2023-07-13T05:10:53;21.80;99.90
1988;DHT22;12775;46.994;15.498;2023-07-13T05:13:19;21.90;99.90
1988;DHT22;12775;46.994;15.498;2023-07-13T05:15:47;22.10;99.90
1988;DHT22;12775;46.994;15.498;2023-07-13T05:18:13;22.30;99.90
1988;DHT22;12775;46.994;15.498;2023-07-13T05:20:40;22.60;99.90
1988;DHT22;12775;46.994;15.498;2023-07-13T05:23:07;23.10;99.90
1988;DHT22;12775;46.994;15.498;2023-07-13T05:25:33;23.60;99.90
1988;DHT22;12775;46.994;15.498;2023-07-13T05:28:00;24.00;99.90
1988;DHT22;12775;46.994;15.498;2023-07-13T05:30:26;24.60;99.90
1988;DHT22;12775;46.994;15.498;2023-07-13T05:32:53;24.90;99.90
1988;DHT22;12775;46.994;15.498;2023-07-13T05:35:20;25.20;99.90
1988;DHT22;12775;46.994;15.498;2023-07-13T05:37:46;25.60;99.90
1988;DHT22;12775;46.994;15.498;2023-07-13T05:40:13;25.60;99.90
1988;DHT22;12775;46.994;15.498;2023-07-13T05:42:39;25.90;99.90
1988;DHT22;12775;46.994;15.498;2023-07-13T05:45:06;26.30;99.90
1988;DHT22;12775;46.994;15.498;2023-07-13T05:47:33;26.60;99.90
1988;DHT22;12775;46.994;15.498;2023-07-13T05:50:00;26.80;99.90
1988;DHT22;12775;46.994;15.498;2023-07-13T05:52:26;27.10;99.90
1988;DHT22;12775;46.994;15.498;2023-07-13T05:54:54;27.50;99.90
1988;DHT22;12775;46.994;15.498;2023-07-13T05:57:20;27.80;98.50
1988;DHT22;12775;46.994;15.498;2023-07-13T05:59:48;28.40;95.60
1988;DHT22;12775;46.994;15.498;2023-07-13T06:02:14;28.30;95.60
1988;DHT22;12775;46.994;15.498;2023-07-13T06:04:42;28.80;96.10
1988;DHT22;12775;46.994;15.498;2023-07-13T06:07:09;29.00;97.10
1988;DHT22;12775;46.994;15.498;2023-07-13T06:09:36;29.00;97.10
1988;DHT22;12775;46.994;15.498;2023-07-13T06:12:04;29.30;91.50
1988;DHT22;12775;46.994;15.498;2023-07-13T06:14:31;29.30;91.50
1988;DHT22;12775;46.994;15.498;2023-07-13T06:16:58;29.20;92.50
1988;DHT22;12775;46.994;15.498;2023-07-13T06:19:26;29.30;93.80
1988;DHT22;12775;46.994;15.498;2023-07-13T06:21:53;29.50;90.90
1988;DHT22;12775;46.994;15.498;2023-07-13T06:24:21;29.50;90.90
1988;DHT22;12775;46.994;15.498;2023-07-13T06:26:48;29.40;91.20
1988;DHT22;12775;46.994;15.498;2023-07-13T06:29:15;29.40;94.00
1988;DHT22;12775;46.994;15.498;2023-07-13T06:31:43;29.60;93.70
1988;DHT22;12775;46.994;15.498;2023-07-13T06:34:10;29.70;91.70
1988;DHT22;12775;46.994;15.498;2023-07-13T06:36:37;29.70;91.20
1988;DHT22;12775;46.994;15.498;2023-07-13T06:39:06;29.90;92.30
1988;DHT22;12775;46.994;15.498;2023-07-13T06:41:32;30.00;91.30
1988;DHT22;12775;46.994;15.498;2023-07-13T06:43:59;30.00;91.30
1988;DHT22;12775;46.994;15.498;2023-07-13T06:46:28;30.20;90.20
1988;DHT22;12775;46.994;15.498;2023-07-13T06:48:54;30.20;90.30
1988;DHT22;12775;46.994;15.498;2023-07-13T06:51:21;30.40;89.80
1988;DHT22;12775;46.994;15.498;2023-07-13T06:53:48;30.30;89.70
1988;DHT22;12775;46.994;15.498;2023-07-13T06:56:14;30.50;91.30
1988;DHT22;12775;46.994;15.498;2023-07-13T06:58:42;30.60;91.40
1988;DHT22;12775;46.994;15.498;2023-07-13T07:01:09;30.70;92.50
1988;DHT22;12775;46.994;15.498;2023-07-13T07:03:37;30.70;91.80
1988;DHT22;12775;46.994;15.498;2023-07-13T07:06:12;30.80;91.10
1988;DHT22;12775;46.994;15.498;2023-07-13T07:08:35;30.80;91.20
1988;DHT22;12775;46.994;15.498;2023-07-13T07:11:02;30.80;91.50
1988;DHT22;12775;46.994;15.498;2023-07-13T07:13:29;30.90;90.80
1988;DHT22;12775;46.994;15.498;2023-07-13T07:15:56;30.60;90.30
1988;DHT22;12775;46.994;15.498;2023-07-13T07:18:22;30.50;90.30
1988;DHT22;12775;46.994;15.498;2023-07-13T07:20:49;30.60;90.60
1988;DHT22;12775;46.994;15.498;2023-07-13T07:23:16;30.60;90.40
1988;DHT22;12775;46.994;15.498;2023-07-13T07:25:43;30.60;90.10
1988;DHT22;12775;46.994;15.498;2023-07-13T07:28:09;30.50;88.10
1988;DHT22;12775;46.994;15.498;2023-07-13T07:30:35;30.40;87.30
1988;DHT22;12775;46.994;15.498;2023-07-13T07:33:02;30.30;90.40
1988;DHT22;12775;46.994;15.498;2023-07-13T07:35:29;30.20;90.00
1988;DHT22;12775;46.994;15.498;2023-07-13T07:37:56;30.20;90.00
1988;DHT22;12775;46.994;15.498;2023-07-13T07:40:23;30.40;91.40
1988;DHT22;12775;46.994;15.498;2023-07-13T07:42:49;30.30;81.80
1988;DHT22;12775;46.994;15.498;2023-07-13T07:45:17;30.30;89.30
1988;DHT22;12775;46.994;15.498;2023-07-13T07:47:43;30.20;91.20
1988;DHT22;12775;46.994;15.498;2023-07-13T07:50:10;30.30;84.80
1988;DHT22;12775;46.994;15.498;2023-07-13T07:52:37;30.10;81.40
1988;DHT22;12775;46.994;15.498;2023-07-13T07:55:04;29.80;78.50
1988;DHT22;12775;46.994;15.498;2023-07-13T07:57:30;29.80;85.10
1988;DHT22;12775;46.994;15.498;2023-07-13T07:59:57;29.70;84.10
1988;DHT22;12775;46.994;15.498;2023-07-13T08:02:25;29.80;88.80
1988;DHT22;12775;46.994;15.498;2023-07-13T08:04:51;29.90;90.70
1988;DHT22;12775;46.994;15.498;2023-07-13T08:07:17;30.00;89.20
1988;DHT22;12775;46.994;15.498;2023-07-13T08:09:44;30.10;90.40
1988;DHT22;12775;46.994;15.498;2023-07-13T08:12:11;30.30;90.90
1988;DHT22;12775;46.994;15.498;2023-07-13T08:14:38;30.30;90.50
1988;DHT22;12775;46.994;15.498;2023-07-13T08:17:04;30.40;89.30
1988;DHT22;12775;46.994;15.498;2023-07-13T08:19:31;30.50;85.30
1988;DHT22;12775;46.994;15.498;2023-07-13T08:21:58;30.60;84.30
1988;DHT22;12775;46.994;15.498;2023-07-13T08:24:24;30.50;81.80
1988;DHT22;12775;46.994;15.498;2023-07-13T08:26:51;30.60;83.60
1988;DHT22;12775;46.994;15.498;2023-07-13T08:29:18;30.70;86.20
1988;DHT22;12775;46.994;15.498;2023-07-13T08:31:44;30.80;86.10
1988;DHT22;12775;46.994;15.498;2023-07-13T08:34:11;31.00;87.50
1988;DHT22;12775;46.994;15.498;2023-07-13T08:36:37;31.10;91.00
1988;DHT22;12775;46.994;15.498;2023-07-13T08:39:04;31.20;83.60
1988;DHT22;12775;46.994;15.498;2023-07-13T08:41:30;31.40;86.70
1988;DHT22;12775;46.994;15.498;2023-07-13T08:43:58;31.40;86.30
1988;DHT22;12775;46.994;15.498;2023-07-13T08:46:25;31.50;75.80
1988;DHT22;12775;46.994;15.498;2023-07-13T08:48:52;31.40;74.20
1988;DHT22;12775;46.994;15.498;2023-07-13T08:51:22;31.40;72.40
1988;DHT22;12775;46.994;15.498;2023-07-13T08:53:46;31.40;74.10
1988;DHT22;12775;46.994;15.498;2023-07-13T08:56:23;31.50;77.50
1988;DHT22;12775;46.994;15.498;2023-07-13T08:58:50;31.60;78.80
1988;DHT22;12775;46.994;15.498;2023-07-13T09:01:25;31.60;77.00
1988;DHT22;12775;46.994;15.498;2023-07-13T09:04:05;31.60;76.80
1988;DHT22;12775;46.994;15.498;2023-07-13T09:06:34;31.50;72.20
1988;DHT22;12775;46.994;15.498;2023-07-13T09:08:59;31.50;78.70
1988;DHT22;12775;46.994;15.498;2023-07-13T09:11:47;31.50;75.60
1988;DHT22;12775;46.994;15.498;2023-07-13T09:14:26;31.50;77.70
1988;DHT22;12775;46.994;15.498;2023-07-13T09:16:47;31.50;72.40
1988;DHT22;12775;46.994;15.498;2023-07-13T09:19:16;31.60;72.90
1988;DHT22;12775;46.994;15.498;2023-07-13T09:21:41;31.60;72.40
1988;DHT22;12775;46.994;15.498;2023-07-13T09:26:58;31.80;74.20
1988;DHT22;12775;46.994;15.498;2023-07-13T09:29:28;31.80;74.20
1988;DHT22;12775;46.994;15.498;2023-07-13T09:31:54;31.80;71.70
1988;DHT22;12775;46.994;15.498;2023-07-13T09:34:20;31.80;74.70
1988;DHT22;12775;46.994;15.498;2023-07-13T09:36:46;31.70;68.00
1988;DHT22;12775;46.994;15.498;2023-07-13T09:39:15;31.60;71.10
1988;DHT22;12775;46.994;15.498;2023-07-13T09:41:49;31.60;71.00
1988;DHT22;12775;46.994;15.498;2023-07-13T09:44:15;31.60;73.40
1988;DHT22;12775;46.994;15.498;2023-07-13T09:46:46;31.60;82.20
1988;DHT22;12775;46.994;15.498;2023-07-13T09:49:11;31.90;85.10
1988;DHT22;12775;46.994;15.498;2023-07-13T09:51:41;32.20;84.80
1988;DHT22;12775;46.994;15.498;2023-07-13T09:54:18;32.50;84.50
1988;DHT22;12775;46.994;15.498;2023-07-13T09:56:45;32.70;70.30
1988;DHT22;12775;46.994;15.498;2023-07-13T09:59:19;32.70;67.90
1988;DHT22;12775;46.994;15.498;2023-07-13T10:01:44;32.70;68.60
1988;DHT22;12775;46.994;15.498;2023-07-13T10:04:11;32.50;67.60
1988;DHT22;12775;46.994;15.498;2023-07-13T10:06:38;32.50;71.30
1988;DHT22;12775;46.994;15.498;2023-07-13T10:09:04;32.70;73.40
1988;DHT22;12775;46.994;15.498;2023-07-13T10:11:31;32.90;67.50
1988;DHT22;12775;46.994;15.498;2023-07-13T10:14:01;32.70;68.50
1988;DHT22;12775;46.994;15.498;2023-07-13T10:16:28;32.70;66.30
1988;DHT22;12775;46.994;15.498;2023-07-13T10:18:56;32.80;69.40
1988;DHT22;12775;46.994;15.498;2023-07-13T10:21:23;33.00;76.20
1988;DHT22;12775;46.994;15.498;2023-07-13T10:23:51;33.20;75.60
1988;DHT22;12775;46.994;15.498;2023-07-13T10:26:18;33.20;71.40
1988;DHT22;12775;46.994;15.498;2023-07-13T10:28:43;33.40;76.50
1988;DHT22;12775;46.994;15.498;2023-07-13T10:31:10;33.60;75.40
1988;DHT22;12775;46.994;15.498;2023-07-13T10:33:36;33.80;76.20
1988;DHT22;12775;46.994;15.498;2023-07-13T10:36:12;33.90;74.10
1988;DHT22;12775;46.994;15.498;2023-07-13T10:38:36;34.00;65.60
1988;DHT22;12775;46.994;15.498;2023-07-13T10:41:05;33.80;66.80
1988;DHT22;12775;46.994;15.498;2023-07-13T10:43:35;33.70;66.70
1988;DHT22;12775;46.994;15.498;2023-07-13T10:46:01;33.50;64.80
1988;DHT22;12775;46.994;15.498;2023-07-13T10:48:28;33.30;68.00
1988;DHT22;12775;46.994;15.498;2023-07-13T10:50:54;33.10;66.70
1988;DHT22;12775;46.994;15.498;2023-07-13T10:53:22;32.70;68.10
1988;DHT22;12775;46.994;15.498;2023-07-13T10:56:00;32.80;71.00
1988;DHT22;12775;46.994;15.498;2023-07-13T10:58:31;32.90;71.80
1988;DHT22;12775;46.994;15.498;2023-07-13T11:01:12;33.00;68.00
1988;DHT22;12775;46.994;15.498;2023-07-13T11:03:46;33.00;73.60
1988;DHT22;12775;46.994;15.498;2023-07-13T11:06:07;33.10;77.50
1988;DHT22;12775;46.994;15.498;2023-07-13T11:08:35;33.20;77.00
1988;DHT22;12775;46.994;15.498;2023-07-13T11:11:00;33.30;75.10
1988;DHT22;12775;46.994;15.498;2023-07-13T11:13:36;33.50;75.90
1988;DHT22;12775;46.994;15.498;2023-07-13T11:16:12;33.60;69.30
1988;DHT22;12775;46.994;15.498;2023-07-13T11:18:29;33.60;69.50
1988;DHT22;12775;46.994;15.498;2023-07-13T11:21:12;33.50;66.90
1988;DHT22;12775;46.994;15.498;2023-07-13T11:23:28;33.00;71.80
1988;DHT22;12775;46.994;15.498;2023-07-13T11:25:54;32.80;73.70
1988;DHT22;12775;46.994;15.498;2023-07-13T11:28:22;32.70;73.90
1988;DHT22;12775;46.994;15.498;2023-07-13T11:31:00;32.50;73.00
1988;DHT22;12775;46.994;15.498;2023-07-13T11:33:49;32.40;73.00
1988;DHT22;12775;46.994;15.498;2023-07-13T11:36:13;32.20;73.10
1988;DHT22;12775;46.994;15.498;2023-07-13T11:38:42;32.20;72.50
1988;DHT22;12775;46.994;15.498;2023-07-13T11:41:28;32.10;74.10
1988;DHT22;12775;46.994;15.498;2023-07-13T11:43:54;32.00;74.10
1988;DHT22;12775;46.994;15.498;2023-07-13T11:46:22;31.70;75.60
1988;DHT22;12775;46.994;15.498;2023-07-13T11:48:49;31.70;75.60
1988;DHT22;12775;46.994;15.498;2023-07-13T11:51:18;31.60;75.40
1988;DHT22;12775;46.994;15.498;2023-07-13T11:53:45;31.20;78.70
1988;DHT22;12775;46.994;15.498;2023-07-13T11:56:09;30.80;80.10
1988;DHT22;12775;46.994;15.498;2023-07-13T11:58:36;30.60;80.40
1988;DHT22;12775;46.994;15.498;2023-07-13T12:01:03;30.50;82.40
1988;DHT22;12775;46.994;15.498;2023-07-13T12:03:31;30.40;82.40
1988;DHT22;12775;46.994;15.498;2023-07-13T12:05:58;30.40;81.60
1988;DHT22;12775;46.994;15.498;2023-07-13T12:08:24;30.30;81.70
1988;DHT22;12775;46.994;15.498;2023-07-13T12:11:09;30.50;84.00
1988;DHT22;12775;46.994;15.498;2023-07-13T12:13:36;30.50;82.90
1988;DHT22;12775;46.994;15.498;2023-07-13T12:16:02;30.30;82.60
1988;DHT22;12775;46.994;15.498;2023-07-13T12:18:29;30.20;82.00
1988;DHT22;12775;46.994;15.498;2023-07-13T12:20:56;29.90;81.30
1988;DHT22;12775;46.994;15.498;2023-07-13T12:23:25;30.00;85.00
1988;DHT22;12775;46.994;15.498;2023-07-13T12:25:51;29.80;85.20
1988;DHT22;12775;46.994;15.498;2023-07-13T12:28:23;29.40;87.80
1988;DHT22;12775;46.994;15.498;2023-07-13T12:30:49;29.10;87.50
1988;DHT22;12775;46.994;15.498;2023-07-13T12:33:15;29.00;88.10
1988;DHT22;12775;46.994;15.498;2023-07-13T12:35:46;29.00;88.80
1988;DHT22;12775;46.994;15.498;2023-07-13T12:38:12;28.90;87.80
1988;DHT22;12775;46.994;15.498;2023-07-13T12:40:38;28.90;87.80
1988;DHT22;12775;46.994;15.498;2023-07-13T12:43:05;29.00;88.80
1988;DHT22;12775;46.994;15.498;2023-07-13T12:45:32;29.00;89.10
1988;DHT22;12775;46.994;15.498;2023-07-13T12:48:03;29.00;90.10
1988;DHT22;12775;46.994;15.498;2023-07-13T12:50:30;28.70;89.90
1988;DHT22;12775;46.994;15.498;2023-07-13T12:52:59;28.30;89.20
1988;DHT22;12775;46.994;15.498;2023-07-13T12:55:23;27.90;89.60
1988;DHT22;12775;46.994;15.498;2023-07-13T12:57:53;27.40;90.40
1988;DHT22;12775;46.994;15.498;2023-07-13T13:00:30;27.30;90.40
1988;DHT22;12775;46.994;15.498;2023-07-13T13:02:57;27.10;90.40
1988;DHT22;12775;46.994;15.498;2023-07-13T13:05:26;27.10;90.70
1988;DHT22;12775;46.994;15.498;2023-07-13T13:07:52;27.10;91.10
1988;DHT22;12775;46.994;15.498;2023-07-13T13:10:19;26.80;91.90
1988;DHT22;12775;46.994;15.498;2023-07-13T13:12:45;26.80;92.60
1988;DHT22;12775;46.994;15.498;2023-07-13T13:15:12;26.90;93.00
1988;DHT22;12775;46.994;15.498;2023-07-13T13:17:38;26.80;93.30
1988;DHT22;12775;46.994;15.498;2023-07-13T13:20:14;26.60;95.00
1988;DHT22;12775;46.994;15.498;2023-07-13T13:22:40;26.50;95.00
1988;DHT22;12775;46.994;15.498;2023-07-13T13:25:09;26.40;95.30
1988;DHT22;12775;46.994;15.498;2023-07-13T13:27:34;26.20;95.80
1988;DHT22;12775;46.994;15.498;2023-07-13T13:30:00;26.00;96.60
1988;DHT22;12775;46.994;15.498;2023-07-13T13:32:27;25.80;96.30
1988;DHT22;12775;46.994;15.498;2023-07-13T13:34:54;25.50;96.90
1988;DHT22;12775;46.994;15.498;2023-07-13T13:37:21;25.30;97.40
1988;DHT22;12775;46.994;15.498;2023-07-13T13:39:47;25.40;98.20
1988;DHT22;12775;46.994;15.498;2023-07-13T13:42:14;25.40;98.50
1988;DHT22;12775;46.994;15.498;2023-07-13T13:44:40;25.50;98.90
1988;DHT22;12775;46.994;15.498;2023-07-13T13:47:18;25.60;99.00
1988;DHT22;12775;46.994;15.498;2023-07-13T13:49:39;25.50;98.80
1988;DHT22;12775;46.994;15.498;2023-07-13T13:52:08;25.50;98.80
1988;DHT22;12775;46.994;15.498;2023-07-13T13:54:33;25.60;98.80
1988;DHT22;12775;46.994;15.498;2023-07-13T13:56:59;25.70;98.70
1988;DHT22;12775;46.994;15.498;2023-07-13T13:59:26;25.80;98.70
1988;DHT22;12775;46.994;15.498;2023-07-13T14:01:53;25.80;98.70
1988;DHT22;12775;46.994;15.498;2023-07-13T14:04:21;25.70;98.40
1988;DHT22;12775;46.994;15.498;2023-07-13T14:06:47;25.80;98.40
1988;DHT22;12775;46.994;15.498;2023-07-13T14:09:15;25.40;98.60
1988;DHT22;12775;46.994;15.498;2023-07-13T14:11:41;25.90;99.90
1988;DHT22;12775;46.994;15.498;2023-07-13T14:14:14;26.00;99.90
1988;DHT22;12775;46.994;15.498;2023-07-13T14:16:39;26.30;99.90
1988;DHT22;12775;46.994;15.498;2023-07-13T14:19:07;26.30;99.90
1988;DHT22;12775;46.994;15.498;2023-07-13T14:21:32;26.40;99.90
1988;DHT22;12775;46.994;15.498;2023-07-13T14:23:59;26.70;99.90
1988;DHT22;12775;46.994;15.498;2023-07-13T14:26:26;26.80;98.40
1988;DHT22;12775;46.994;15.498;2023-07-13T14:28:54;27.00;98.90
1988;DHT22;12775;46.994;15.498;2023-07-13T14:31:20;27.00;98.10
1988;DHT22;12775;46.994;15.498;2023-07-13T14:33:47;27.10;99.60
1988;DHT22;12775;46.994;15.498;2023-07-13T14:36:21;27.20;98.00
1988;DHT22;12775;46.994;15.498;2023-07-13T14:38:47;27.10;98.50
1988;DHT22;12775;46.994;15.498;2023-07-13T14:41:15;27.10;98.50
1988;DHT22;12775;46.994;15.498;2023-07-13T14:43:41;27.20;97.30
1988;DHT22;12775;46.994;15.498;2023-07-13T14:46:10;27.20;94.90
1988;DHT22;12775;46.994;15.498;2023-07-13T14:48:34;27.00;94.00
1988;DHT22;12775;46.994;15.498;2023-07-13T14:51:00;26.90;94.40
1988;DHT22;12775;46.994;15.498;2023-07-13T14:53:27;26.90;94.80
1988;DHT22;12775;46.994;15.498;2023-07-13T14:55:54;26.90;95.20
1988;DHT22;12775;46.994;15.498;2023-07-13T14:58:20;26.60;93.10
1988;DHT22;12775;46.994;15.498;2023-07-13T15:00:47;26.40;93.40
1988;DHT22;12775;46.994;15.498;2023-07-13T15:03:23;26.30;93.10
1988;DHT22;12775;46.994;15.498;2023-07-13T15:05:51;26.10;94.00
1988;DHT22;12775;46.994;15.498;2023-07-13T15:08:19;26.00;93.50
1988;DHT22;12775;46.994;15.498;2023-07-13T15:10:46;26.00;93.40
1988;DHT22;12775;46.994;15.498;2023-07-13T15:13:18;25.90;93.20
1988;DHT22;12775;46.994;15.498;2023-07-13T15:15:47;25.80;93.60
1988;DHT22;12775;46.994;15.498;2023-07-13T15:18:12;25.80;93.60
1988;DHT22;12775;46.994;15.498;2023-07-13T15:20:38;25.80;93.30
1988;DHT22;12775;46.994;15.498;2023-07-13T15:23:05;25.60;93.70
1988;DHT22;12775;46.994;15.498;2023-07-13T15:25:32;25.30;93.20
1988;DHT22;12775;46.994;15.498;2023-07-13T15:27:58;25.10;94.00
1988;DHT22;12775;46.994;15.498;2023-07-13T15:30:27;24.90;94.00
1988;DHT22;12775;46.994;15.498;2023-07-13T15:32:52;24.80;94.80
1988;DHT22;12775;46.994;15.498;2023-07-13T15:35:20;24.80;95.90
1988;DHT22;12775;46.994;15.498;2023-07-13T15:37:45;24.70;96.20
1988;DHT22;12775;46.994;15.498;2023-07-13T15:40:12;24.50;95.90